x

West Santa Barbara 38 Nm West Of Santa Barbara, Ca (46054) Wave Buoy

5:50pm - Sat 28th Mar 2015 All times are PDT. -7 hours from GMT.

  • Sig Wave height 6.9ft
  • Swell Direction
  • Peak Period 8s
  • Average Period 7s
  • Wind
    22mph, 25mph gusts
  • Sea Temp 60°f
  • Air Temp 58°f
  • Sea Pressure 1015.6mb
  • West Santa Barbara  38 Nm West Of Santa Barbara, Ca
  • West Santa Barbara  38 Nm West Of Santa Barbara, Ca

More Historic Weather Station data

Upgrade to MSW Pro to gain access to the past 30 days of data for over 8000 Wavebouys and Weather Stations around the globe.

Join Pro

Comparision Forecast

View Surf forecast
   
Sat 03/28 5:50pm 7ft 8s 7s 22 25 mph 1015.6mb 60f 58f
4:50pm 7ft 8s 7s 16 20 mph 1015.8mb 59f 58f
3:50pm 6.5ft 8s 7s 18 22 mph 1016.2mb 59f 58f
2:50pm 8ft 12s 7s 20 25 mph 1016.5mb 59f 57f
1:50pm 8.5ft 13s 7s 22 25 mph 1017.2mb 59f 57f
12:50pm 8ft 12s 7s 20 25 mph 1018.1mb 59f 57f
11:50am 8ft 8s 7s 18 22 mph 1018.4mb 59f 56f
10:50am 8ft 11s 7s 22 25 mph 1018.6mb 59f 55f
9:50am 8.5ft 11s 7s 20 25 mph 1018.4mb 59f 55f
8:50am 8ft 13s 7s 25 27 mph 1017.6mb 58f 54f
7:50am 9ft 13s 7s 25 29 mph 1017mb 58f 54f
6:50am 8ft 14s 6s 25 29 mph 1016.2mb 58f 53f
5:50am 7.5ft 13s 6s 29 34 mph 1016.1mb 58f 54f
4:50am 8.5ft 14s 6s 27 34 mph 1016.4mb 58f 55f
3:50am 8ft 11s 6s 27 34 mph 1016.7mb 58f 55f
2:50am 7.5ft 14s 6s 27 34 mph 1017.1mb 58f 54f
1:50am 8ft 11s 6s 31 36 mph 1017.3mb 58f 55f
12:50am 8ft 15s 6s 31 38 mph 1017.7mb 59f 55f
Fri 03/27 11:50pm 7ft 11s 6s 29 36 mph 1018.1mb 59f 55f
10:50pm 7ft 11s 6s 27 31 mph 1018mb 59f 55f
9:50pm 7ft 12s 6s 27 34 mph 1017.8mb 60f 55f
8:50pm 7ft 11s 6s 25 29 mph 1017.6mb 60f 55f
7:50pm 7ft 11s 6s 29 34 mph 1016.9mb 60f 56f
6:50pm 6ft 5s 5s 31 38 mph 1016.3mb 60f 56f
5:50pm 6.5ft 11s 5s 29 34 mph 1016.4mb 61f 56f
4:50pm 6ft 11s 5s 29 34 mph 1016.5mb 61f 56f
3:50pm 6ft 11s 6s 29 36 mph 1016.9mb 61f 56f
2:50pm 6ft 11s 6s 25 31 mph 1017.9mb 61f 56f
1:50pm 6ft 11s 6s 22 27 mph 1018.4mb 61f 56f
12:50pm 6ft 12s 6s 22 27 mph 1018.7mb 60f 56f
11:50am 6ft 11s 6s 20 25 mph 1018.9mb 60f 55f
10:50am 5.5ft 11s 6s 22 25 mph 1018.8mb 60f 55f
9:50am 5.5ft 11s 6s 18 22 mph 1018.5mb 60f 55f
8:50am 5ft 11s 6s 18 20 mph 1017.5mb 60f 56f
7:50am 5ft 12s 6s 16 18 mph 1017mb 60f 56f
6:50am 5ft 11s 6s 18 22 mph 1016.5mb 60f 55f
5:50am 5ft 11s 6s 20 25 mph 1016.3mb 60f 55f
4:50am 5.5ft 11s 6s 20 22 mph 1016.5mb 60f 55f
3:50am 5.5ft 11s 6s 20 22 mph 1016.5mb 60f 55f
2:50am 6ft 12s 6s 20 25 mph 1016.8mb 60f 55f
1:50am 5.5ft 11s 6s 20 25 mph 1017.3mb 60f 55f
12:50am 5ft 11s 6s 22 25 mph 1017.3mb 60f 56f
Thu 03/26 11:50pm 5.5ft 11s 7s 18 20 mph 1017.3mb 60f 60f
10:50pm 5ft 11s 7s 13 16 mph 1017.3mb 60f 62f
9:50pm 5ft 11s 7s 16 18 mph 1017mb 60f 62f
8:50pm 5ft 11s 7s 13 16 mph 1016.6mb 59f 62f
7:50pm 5ft 11s 7s 13 16 mph 1016.4mb 59f 61f
6:50pm 5.5ft 11s 8s 16 18 mph 1016.2mb 59f 61f
5:50pm 4.5ft 10s 8s 13 16 mph 1016.4mb 58f 60f
4:50pm 4.5ft 11s 8s 13 16 mph 1016.6mb 60f 60f
3:50pm 5ft 11s 7s 7 9 mph 1017mb 59f 61f
2:50pm 5ft 11s 7s 9 11 mph 1017.3mb 59f 61f
1:50pm 6ft 11s 7s 7 9 mph 1017.9mb 61f 62f
12:50pm 6ft 8s 7s 2 4 mph 1018.3mb 61f 64f
11:50am 6ft 8s 7s  -  2 mph 1018.5mb 60f 65f
10:50am 6ft 11s 7s  -  2 mph 1018.8mb 59f 62f
9:50am 6ft 10s 7s 2 4 mph 1018.7mb 58f 61f
8:50am 6ft 10s 7s 2 4 mph 1018.1mb 58f 61f
7:50am 6ft 11s 7s 7
mph
1017.5mb 58f 61f
6:50am 6ft 11s 7s 2 4 mph 1016.8mb 58f 61f
5:50am 6ft 12s 7s 2 4 mph 1016.4mb 58f 60f
4:50am 6ft 11s 7s 4 7 mph 1016.4mb 58f 59f
3:50am 6ft 11s 7s 4 7 mph 1016.6mb 58f 58f
2:50am 7ft 11s 7s 11
mph
1016.4mb 58f 59f
1:50am 7ft 11s 7s 11 13 mph 1016.5mb 58f 58f
12:50am 7.5ft 11s 7s 16 18 mph 1016.7mb 58f 58f
Wed 03/25 11:50pm 7ft 11s 6s 18 22 mph 1017.1mb 57f 58f
10:50pm 7.5ft 11s 7s 22 27 mph 1017.2mb 58f 58f
9:50pm 7ft 11s 7s 25 29 mph 1017.2mb 58f 58f
8:50pm 6ft 12s 6s 22 27 mph 1017.2mb 57f 58f
7:50pm 6.5ft 11s 7s 20 25 mph 1016.7mb 57f 58f
6:50pm 6.5ft 11s 7s 22 25 mph 1016.5mb 56f 58f
5:50pm 6ft 11s 6s 20 22 mph 1016.5mb 56f 58f
4:50pm 6.5ft 12s 6s 22 25 mph 1016.8mb 56f 58f
3:50pm 7ft 12s 6s 22 27 mph 1017.2mb 56f 58f
2:50pm 7ft 11s 6s 22 27 mph 1017.7mb 57f 58f
1:50pm 8ft 12s 7s 22 29 mph 1018.2mb 57f 58f
12:50pm 8ft 11s 7s 22 27 mph 1018.7mb 57f 59f
11:50am 8ft 12s 7s 20 25 mph 1018.9mb 57f 58f
10:50am 8ft 12s 7s 18 22 mph 1018.9mb 56f 58f
9:50am 8ft 11s 7s 18 22 mph 1018.7mb 56f 58f
8:50am 8ft 13s 7s 22 27 mph 1018.1mb 56f 59f
7:50am 8ft 12s 7s 22 27 mph 1017.7mb 56f 58f
6:50am 8ft 11s 7s 22 29 mph 1017mb 56f 58f
5:50am 8.5ft 12s 7s 22 27 mph 1016.9mb 56f 57f
4:50am 8ft 8s 6s 27 31 mph 1016.8mb 56f 57f
3:50am 8.5ft 12s 7s 25 31 mph 1017.5mb 56f 57f
2:50am 9ft 7s 7s 27 31 mph 1017.7mb 56f 57f
1:50am 9ft 11s 7s 27 31 mph 1018.3mb 56f 57f